Time;durP1;ratioP1;P1;durP2;ratioP2;P2;SDS_P1;SDS_P2;PMS_P1;PMS_P2;Temp;Humidity;BMP_temperature;BMP_pressure;BME280_temperature;BME280_humidity;BME280_pressure;Samples;Min_cycle;Max_cycle;Signal;HPM_P1;HPM_P2
2023/06/19 00:00:31;;;;;;;9.40;8.30;;;;;;;23.54;49.13;97644.06;5073083;28;20207;-79
2023/06/19 00:02:57;;;;;;;9.93;9.02;;;;;;;23.38;49.34;97644.38;5073476;28;20231;-79
2023/06/19 00:05:24;;;;;;;10.17;8.53;;;;;;;23.23;49.61;97640.94;5073321;28;20701;-79
2023/06/19 00:07:51;;;;;;;9.27;8.27;;;;;;;23.13;50.04;97643.13;5073310;28;20214;-80
2023/06/19 00:10:19;;;;;;;9.03;8.23;;;;;;;23.03;50.13;97642.63;5073170;28;20575;-80
2023/06/19 00:12:46;;;;;;;9.30;8.50;;;;;;;22.93;50.38;97647.50;5073307;28;20204;-80
2023/06/19 00:15:12;;;;;;;9.47;8.47;;;;;;;22.83;50.67;97649.72;5072987;28;20235;-80
2023/06/19 00:17:39;;;;;;;8.90;8.10;;;;;;;22.73;51.24;97651.91;5073076;28;20215;-80
2023/06/19 00:20:06;;;;;;;8.50;7.70;;;;;;;22.66;51.49;97652.84;5072963;28;20297;-80
2023/06/19 00:22:33;;;;;;;8.77;8.00;;;;;;;22.65;52.06;97659.28;5073241;28;20238;-80
2023/06/19 00:25:00;;;;;;;8.87;8.00;;;;;;;22.57;53.68;97662.97;5073281;28;20234;-80
2023/06/19 00:27:28;;;;;;;8.70;7.90;;;;;;;22.52;53.84;97665.38;5073304;28;20294;-80
2023/06/19 00:29:54;;;;;;;8.43;7.73;;;;;;;22.52;53.25;97661.84;5072797;28;20212;-80
2023/06/19 00:32:21;;;;;;;8.40;7.60;;;;;;;22.59;52.55;97654.66;5073187;28;20218;-80
2023/06/19 00:34:48;;;;;;;8.93;8.13;;;;;;;22.67;52.42;97660.75;5073073;28;20532;-80
2023/06/19 00:37:14;;;;;;;8.47;7.77;;;;;;;22.73;53.20;97668.06;5073167;28;20203;-80
2023/06/19 00:39:41;;;;;;;8.70;7.90;;;;;;;22.80;53.21;97668.97;5072711;28;20207;-80
2023/06/19 00:42:08;;;;;;;8.90;8.00;;;;;;;22.86;52.21;97657.41;5072697;28;20234;-87
2023/06/19 00:44:35;;;;;;;8.50;7.80;;;;;;;22.97;51.70;97654.19;5072700;28;20203;-81
2023/06/19 00:47:03;;;;;;;8.90;8.10;;;;;;;23.01;52.36;97660.03;5072396;28;20222;-82
2023/06/19 00:49:31;;;;;;;8.77;8.07;;;;;;;23.04;53.70;97675.81;5072543;28;20211;-81
2023/06/19 00:51:58;;;;;;;7.90;7.20;;;;;;;23.00;54.36;97680.78;5072582;28;20207;-81
2023/06/19 00:54:24;;;;;;;8.30;7.50;;;;;;;22.98;54.68;97682.81;5072610;28;20218;-82
2023/06/19 00:56:51;;;;;;;7.97;7.37;;;;;;;22.90;55.69;97691.03;5072199;28;20239;-81
2023/06/19 00:59:19;;;;;;;8.47;7.77;;;;;;;22.82;55.84;97698.41;5071894;28;20211;-82
2023/06/19 01:01:47;;;;;;;8.50;7.73;;;;;;;22.72;56.21;97698.72;5072413;28;20211;-82
2023/06/19 01:04:14;;;;;;;8.90;8.10;;;;;;;22.66;56.37;97698.66;5072481;28;20218;-81
2023/06/19 01:06:47;;;;;;;8.83;8.03;;;;;;;22.57;56.64;97700.66;5072298;28;20230;-82
2023/06/19 01:09:17;;;;;;;9.30;8.50;;;;;;;22.54;57.32;97717.19;5071292;28;20283;-82
2023/06/19 01:11:47;;;;;;;9.27;8.33;;;;;;;22.55;54.64;97724.25;5071963;28;20215;-81
2023/06/19 01:14:19;;;;;;;9.43;8.63;;;;;;;22.72;53.79;97744.53;5072408;28;20233;-81
2023/06/19 01:16:47;;;;;;;8.10;7.30;;;;;;;22.89;52.44;97743.28;5071793;28;20697;-83
2023/06/19 01:19:19;;;;;;;7.50;6.80;;;;;;;23.05;51.76;97739.50;5071574;28;20207;-80
2023/06/19 01:21:46;;;;;;;7.90;7.17;;;;;;;23.14;51.44;97733.78;5071814;28;20284;-81
2023/06/19 01:24:14;;;;;;;8.23;6.93;;;;;;;23.20;51.76;97733.03;5072052;28;20211;-81
2023/06/19 01:26:45;;;;;;;7.80;7.07;;;;;;;23.20;51.56;97745.66;5071857;28;20231;-81
2023/06/19 01:29:12;;;;;;;7.23;6.53;;;;;;;23.16;52.03;97729.03;5071557;28;20241;-82
2023/06/19 01:31:47;;;;;;;6.90;6.30;;;;;;;23.11;51.76;97736.84;5071679;28;20207;-83
2023/06/19 01:34:18;;;;;;;6.50;6.00;;;;;;;23.03;52.23;97734.28;5071667;28;20311;-83
2023/06/19 01:36:45;;;;;;;6.07;5.57;;;;;;;23.02;52.13;97738.00;5071620;28;20238;-83
2023/06/19 01:39:14;;;;;;;6.33;5.73;;;;;;;23.01;52.20;97741.75;5071486;28;20207;-83
2023/06/19 01:41:42;;;;;;;6.03;5.43;;;;;;;22.97;52.45;97751.22;5071938;28;20285;-83
2023/06/19 01:44:09;;;;;;;5.40;4.90;;;;;;;22.93;52.83;97752.63;5071633;28;20300;-82
2023/06/19 01:46:36;;;;;;;6.43;5.43;;;;;;;22.91;53.01;97761.97;5071244;28;20235;-81
2023/06/19 01:49:06;;;;;;;5.50;4.90;;;;;;;22.93;53.14;97760.72;5071257;28;20208;-81
2023/06/19 01:51:33;;;;;;;7.33;4.50;;;;;;;22.98;53.14;97758.28;5071537;28;20215;-81
2023/06/19 01:53:59;;;;;;;5.43;4.93;;;;;;;23.06;53.36;97760.88;5071270;28;20207;-82
2023/06/19 01:56:27;;;;;;;6.10;4.60;;;;;;;23.14;53.51;97763.44;5071352;28;20594;-81
2023/06/19 01:58:55;;;;;;;5.47;4.70;;;;;;;23.15;53.69;97770.47;5071233;28;20226;-81
2023/06/19 02:01:21;;;;;;;4.67;4.27;;;;;;;23.20;53.63;97768.09;5070953;28;20211;-79
2023/06/19 02:03:48;;;;;;;5.63;5.07;;;;;;;23.16;54.18;97769.47;5071043;28;20326;-81
2023/06/19 02:06:15;;;;;;;5.43;4.93;;;;;;;23.16;54.75;97774.88;5071020;28;20227;-81
2023/06/19 02:08:41;;;;;;;4.77;4.37;;;;;;;23.15;54.91;97764.25;5071198;28;20215;-82
2023/06/19 02:11:08;;;;;;;4.70;4.30;;;;;;;23.10;55.81;97772.91;5071011;28;20214;-82
2023/06/19 02:13:35;;;;;;;4.77;4.37;;;;;;;23.10;55.83;97775.63;5071468;28;20210;-82
2023/06/19 02:16:02;;;;;;;5.10;4.70;;;;;;;23.04;56.10;97768.28;5071199;28;20238;-82
2023/06/19 02:18:28;;;;;;;5.43;4.70;;;;;;;23.00;56.90;97769.72;5071397;28;20200;-82
2023/06/19 02:20:55;;;;;;;4.50;4.10;;;;;;;23.05;57.28;97767.25;5070949;28;20582;-82
2023/06/19 02:23:21;;;;;;;4.63;4.23;;;;;;;22.97;57.75;97778.19;5071517;28;20235;-88
2023/06/19 02:25:48;;;;;;;4.77;4.37;;;;;;;22.88;58.63;97778.50;5073107;28;20604;-81
2023/06/19 02:28:15;;;;;;;4.23;3.93;;;;;;;22.82;58.89;97785.50;5070996;28;20230;-83
2023/06/19 02:30:43;;;;;;;4.57;4.07;;;;;;;22.77;59.67;97777.16;5071017;28;20230;-83
2023/06/19 02:33:10;;;;;;;4.70;4.30;;;;;;;22.77;59.87;97776.28;5071040;28;20203;-83
2023/06/19 02:35:36;;;;;;;5.17;4.20;;;;;;;22.74;60.00;97774.00;5070745;28;20223;-83
2023/06/19 02:38:04;;;;;;;4.73;4.23;;;;;;;22.68;60.35;97778.25;5070895;28;20212;-83
2023/06/19 02:41:18;;;;;;;4.83;4.43;;;;;;;22.69;60.30;97776.41;5070620;28;20619;-83
2023/06/19 02:43:45;;;;;;;5.57;4.43;;;;;;;22.63;60.73;97780.72;5070846;28;20632;-83
2023/06/19 02:46:13;;;;;;;5.00;4.20;;;;;;;22.62;60.98;97773.63;5085212;22;20258;-77
2023/06/19 02:52:01;;;;;;;4.37;4.07;;;;;;;22.55;61.26;97783.50;5071063;28;20270;-78
2023/06/19 02:54:28;;;;;;;4.27;3.97;;;;;;;22.51;61.75;97784.94;5070845;28;20207;-77
2023/06/19 02:56:54;;;;;;;4.13;3.80;;;;;;;22.49;61.80;97789.66;5070834;28;20227;-77
2023/06/19 02:59:22;;;;;;;4.10;3.80;;;;;;;22.46;62.15;97790.03;5070464;28;20235;-78
2023/06/19 03:01:49;;;;;;;5.07;4.67;;;;;;;22.47;62.30;97797.09;5070649;28;20215;-77
2023/06/19 03:04:16;;;;;;;4.73;4.33;;;;;;;22.42;62.56;97787.84;5070824;28;20231;-77
2023/06/19 03:06:43;;;;;;;4.60;4.20;;;;;;;22.37;62.65;97796.50;5070754;28;20223;-77
2023/06/19 03:09:12;;;;;;;4.87;4.47;;;;;;;22.40;62.62;97789.91;5070513;28;20230;-76
2023/06/19 03:11:39;;;;;;;5.13;4.63;;;;;;;22.39;62.16;97797.16;5070736;28;20204;-77
2023/06/19 03:14:07;;;;;;;4.90;4.50;;;;;;;22.39;62.28;97799.88;5070568;28;20269;-77
2023/06/19 03:16:34;;;;;;;5.20;4.80;;;;;;;22.44;61.89;97796.63;5070548;28;20231;-77
2023/06/19 03:19:02;;;;;;;4.67;4.27;;;;;;;22.41;62.11;97792.41;5070647;28;20219;-77
2023/06/19 03:21:28;;;;;;;4.67;4.27;;;;;;;22.37;62.07;97801.06;5070533;28;20222;-77
2023/06/19 03:23:55;;;;;;;5.27;4.20;;;;;;;22.37;62.14;97804.56;5070503;28;20235;-77
2023/06/19 03:26:22;;;;;;;5.23;4.70;;;;;;;22.40;62.03;97817.69;5070431;28;20231;-76
2023/06/19 03:28:48;;;;;;;5.07;4.23;;;;;;;22.30;62.84;97817.13;5070298;28;20318;-77
2023/06/19 03:31:16;;;;;;;4.50;4.10;;;;;;;22.29;62.96;97812.75;5070255;28;20199;-77
2023/06/19 03:33:42;;;;;;;5.10;4.70;;;;;;;22.30;62.43;97809.03;5073994;28;20627;-77
2023/06/19 03:36:10;;;;;;;4.57;4.17;;;;;;;22.30;62.66;97810.91;5074123;28;20227;-76
2023/06/19 03:38:37;;;;;;;4.70;4.33;;;;;;;22.24;63.16;97823.25;5074095;28;20212;-77
2023/06/19 03:41:03;;;;;;;4.50;4.10;;;;;;;22.24;63.41;97820.56;5073651;28;20650;-77
2023/06/19 03:43:30;;;;;;;5.03;4.60;;;;;;;22.23;63.32;97821.59;5073727;28;20416;-78
2023/06/19 03:45:56;;;;;;;4.67;4.17;;;;;;;22.27;63.16;97827.44;5073849;28;20242;-76
2023/06/19 03:48:23;;;;;;;4.83;4.03;;;;;;;22.29;63.03;97823.53;5073952;28;20215;-77
2023/06/19 03:50:49;;;;;;;4.27;3.80;;;;;;;22.25;62.97;97827.63;5073791;28;20213;-77
2023/06/19 03:53:17;;;;;;;4.77;4.10;;;;;;;22.26;63.18;97834.66;5073824;28;20214;-77
2023/06/19 03:55:44;;;;;;;4.90;4.50;;;;;;;22.22;63.35;97830.69;5073604;28;20722;-77
2023/06/19 03:58:10;;;;;;;4.40;4.00;;;;;;;22.23;63.42;97831.50;5073572;28;20208;-77
2023/06/19 04:00:37;;;;;;;4.50;4.10;;;;;;;22.18;63.91;97834.75;5073503;28;20203;-77
2023/06/19 04:03:03;;;;;;;3.77;3.47;;;;;;;22.18;63.71;97837.47;5073602;28;20230;-77
2023/06/19 04:05:30;;;;;;;4.20;3.90;;;;;;;22.18;63.77;97832.06;5073583;28;20238;-77
2023/06/19 04:07:56;;;;;;;3.70;3.40;;;;;;;22.15;64.10;97835.16;5073616;28;20218;-77
2023/06/19 04:10:24;;;;;;;3.07;2.87;;;;;;;22.14;64.27;97840.72;5073174;28;20203;-77
2023/06/19 04:12:51;;;;;;;3.83;3.43;;;;;;;22.14;64.18;97843.41;5073666;28;20208;-77
2023/06/19 04:15:17;;;;;;;3.50;3.20;;;;;;;22.14;64.50;97848.78;5073610;28;20238;-77
2023/06/19 04:17:44;;;;;;;3.80;3.30;;;;;;;22.13;64.53;97853.31;5073557;28;20207;-77
2023/06/19 04:20:11;;;;;;;3.80;3.40;;;;;;;22.17;64.29;97853.78;5073020;28;20214;-76
2023/06/19 04:22:39;;;;;;;4.10;3.20;;;;;;;22.16;64.42;97852.97;5073475;28;20211;-77
2023/06/19 04:25:06;;;;;;;3.63;2.70;;;;;;;22.19;63.52;97847.19;5073109;28;20252;-77
2023/06/19 04:27:34;;;;;;;2.80;2.60;;;;;;;22.21;63.45;97852.41;5073126;28;20663;-76
2023/06/19 04:30:03;;;;;;;3.47;2.70;;;;;;;22.23;63.61;97859.28;5072741;28;20693;-77
2023/06/19 04:32:30;;;;;;;2.50;2.30;;;;;;;22.23;64.07;97867.34;5073427;28;20265;-77
2023/06/19 04:34:57;;;;;;;2.43;2.23;;;;;;;22.26;64.01;97864.28;5073272;28;20234;-77
2023/06/19 04:37:23;;;;;;;2.57;2.37;;;;;;;22.30;64.18;97865.59;5073274;28;20203;-77
2023/06/19 04:39:50;;;;;;;2.83;2.63;;;;;;;22.26;64.47;97864.28;5072786;28;20215;-77
2023/06/19 04:42:19;;;;;;;2.57;2.37;;;;;;;22.21;64.90;97871.25;5073137;28;20220;-77
2023/06/19 04:44:47;;;;;;;3.23;2.60;;;;;;;22.22;65.15;97870.22;5071833;28;20593;-77
2023/06/19 04:47:13;;;;;;;2.97;2.67;;;;;;;22.23;65.44;97874.59;5072571;28;20246;-77
2023/06/19 04:49:40;;;;;;;3.93;2.43;;;;;;;22.28;65.87;97874.88;5072497;28;20211;-77
2023/06/19 04:52:07;;;;;;;2.80;2.50;;;;;;;22.28;65.83;97873.03;5072790;28;20216;-77
2023/06/19 04:54:34;;;;;;;2.67;2.47;;;;;;;22.34;65.32;97874.97;5072831;28;20207;-77
2023/06/19 04:57:03;;;;;;;2.57;2.37;;;;;;;22.47;64.84;97872.50;5072534;28;20736;-77
2023/06/19 04:59:30;;;;;;;2.60;2.40;;;;;;;22.55;65.18;97869.69;5072404;28;20207;-77
2023/06/19 05:01:58;;;;;;;2.60;2.40;;;;;;;22.64;65.67;97873.97;5072551;28;20673;-77
2023/06/19 05:04:26;;;;;;;2.77;2.57;;;;;;;22.81;65.84;97875.41;5072408;28;20238;-77
2023/06/19 05:06:52;;;;;;;2.93;2.50;;;;;;;23.39;63.68;97869.91;5072245;28;20230;-77
2023/06/19 05:09:19;;;;;;;2.80;2.60;;;;;;;24.04;62.23;97873.25;5072174;28;20208;-78
2023/06/19 05:11:46;;;;;;;3.10;2.80;;;;;;;24.68;59.79;97857.69;5072421;28;20294;-77
2023/06/19 05:14:14;;;;;;;2.80;2.60;;;;;;;25.09;58.59;97862.00;5072186;28;20211;-77
2023/06/19 05:16:40;;;;;;;3.00;2.70;;;;;;;25.34;57.01;97860.44;5071960;28;20231;-77
2023/06/19 05:19:08;;;;;;;2.97;2.67;;;;;;;25.55;56.50;97852.13;5071930;28;20203;-77
2023/06/19 05:21:35;;;;;;;3.00;2.80;;;;;;;25.70;56.08;97854.63;5072060;28;20222;-78
2023/06/19 05:24:01;;;;;;;3.17;2.87;;;;;;;25.72;55.29;97855.28;5072187;28;20247;-77
2023/06/19 05:26:28;;;;;;;2.60;2.40;;;;;;;25.56;55.49;97858.38;5071952;28;20600;-78
2023/06/19 05:28:54;;;;;;;2.78;2.58;;;;;;;25.41;56.26;97861.28;5072120;28;20215;-78
2023/06/19 05:31:21;;;;;;;2.47;2.28;;;;;;;25.14;57.84;97877.59;5071562;28;20211;-78
2023/06/19 05:33:47;;;;;;;2.80;2.60;;;;;;;24.82;59.34;97878.31;5071746;28;20222;-78
2023/06/19 05:36:15;;;;;;;2.88;2.60;;;;;;;24.55;60.69;97880.00;5071827;28;20254;-77
2023/06/19 05:38:41;;;;;;;2.80;2.60;;;;;;;24.36;61.99;97890.69;5072064;28;20218;-78
2023/06/19 05:41:08;;;;;;;2.90;2.70;;;;;;;24.22;63.78;97903.28;5071260;28;20211;-78
2023/06/19 05:43:37;;;;;;;3.17;2.88;;;;;;;24.22;63.77;97899.75;5071558;28;20694;-78
2023/06/19 05:46:04;;;;;;;2.85;2.65;;;;;;;24.28;63.26;97912.47;5071295;28;20725;-78
2023/06/19 05:48:31;;;;;;;2.97;2.77;;;;;;;24.28;62.66;97907.06;5071450;28;20234;-78
2023/06/19 05:50:57;;;;;;;2.72;2.53;;;;;;;24.23;63.32;97910.34;5071483;28;20535;-78
2023/06/19 05:53:26;;;;;;;3.93;2.90;;;;;;;24.18;64.92;97918.22;5071556;28;20207;-78
2023/06/19 05:55:52;;;;;;;2.83;2.60;;;;;;;24.15;65.81;97921.28;5071052;28;20235;-78
2023/06/19 05:58:19;;;;;;;2.83;2.63;;;;;;;24.08;66.27;97924.97;5071504;28;20207;-78
2023/06/19 06:00:46;;;;;;;2.77;2.57;;;;;;;24.09;68.26;97943.66;5071069;28;20208;-78
2023/06/19 06:03:13;;;;;;;3.13;2.83;;;;;;;24.10;68.18;97939.13;5071377;28;20207;-78
2023/06/19 06:05:40;;;;;;;3.20;2.90;;;;;;;24.13;68.21;97936.84;5071528;28;20660;-78
2023/06/19 06:08:06;;;;;;;2.95;2.70;;;;;;;24.21;68.81;97936.69;5071577;28;20208;-78
2023/06/19 06:10:34;;;;;;;3.30;2.83;;;;;;;24.27;69.55;97935.91;5070876;28;20682;-78
2023/06/19 06:13:03;;;;;;;3.70;3.13;;;;;;;24.44;68.66;97931.09;5071357;28;20218;-78
2023/06/19 06:15:29;;;;;;;3.35;3.00;;;;;;;24.64;67.15;97927.47;5071035;28;20234;-78
2023/06/19 06:17:56;;;;;;;2.70;2.50;;;;;;;25.02;65.61;97915.22;5071377;28;20207;-78
2023/06/19 06:20:22;;;;;;;3.03;2.73;;;;;;;25.43;63.55;97917.91;5071058;28;20207;-77
2023/06/19 06:22:49;;;;;;;3.13;2.90;;;;;;;25.64;61.32;97915.88;5071242;28;20215;-78
2023/06/19 06:25:15;;;;;;;3.22;2.92;;;;;;;25.81;60.29;97903.59;5070963;28;20243;-76
2023/06/19 06:27:44;;;;;;;2.70;2.50;;;;;;;25.98;59.43;97907.59;5071247;28;20216;-78
2023/06/19 06:30:12;;;;;;;2.75;2.55;;;;;;;26.06;59.39;97904.69;5070658;28;20211;-78
2023/06/19 06:32:38;;;;;;;3.17;2.97;;;;;;;26.31;57.62;97897.59;5071031;28;20724;-78
2023/06/19 06:35:06;;;;;;;3.00;2.75;;;;;;;26.68;56.87;97894.22;5070977;28;20204;-79
2023/06/19 06:37:33;;;;;;;2.90;2.70;;;;;;;26.92;56.31;97907.09;5071270;28;20203;-76
2023/06/19 06:39:59;;;;;;;3.22;2.90;;;;;;;27.41;54.83;97904.59;5070789;28;20817;-78
2023/06/19 06:42:26;;;;;;;2.80;2.60;;;;;;;27.70;52.41;97896.69;5070913;28;20226;-79
2023/06/19 06:44:53;;;;;;;3.25;2.50;;;;;;;28.02;51.19;97892.09;5070828;28;20231;-77
2023/06/19 06:47:20;;;;;;;3.20;2.90;;;;;;;28.44;49.35;97884.00;5070633;28;20681;-78
2023/06/19 06:49:46;;;;;;;2.78;2.58;;;;;;;28.96;48.13;97885.34;5070666;28;20319;-78
2023/06/19 06:52:13;;;;;;;2.83;2.63;;;;;;;29.41;47.51;97889.38;5070892;28;20214;-78
2023/06/19 06:54:39;;;;;;;2.88;2.58;;;;;;;29.64;47.40;97892.25;5070772;28;20585;-78
2023/06/19 06:57:06;;;;;;;2.67;2.47;;;;;;;29.78;45.10;97856.38;5070655;28;20224;-78
2023/06/19 06:59:33;;;;;;;3.22;2.92;;;;;;;29.56;45.56;97868.88;5070530;28;20665;-79
2023/06/19 07:02:00;;;;;;;2.90;2.70;;;;;;;29.60;45.37;97880.13;5070980;28;20222;-77
2023/06/19 07:04:27;;;;;;;2.85;2.50;;;;;;;29.73;44.89;97879.94;5070948;28;20317;-77
2023/06/19 07:06:53;;;;;;;2.40;2.20;;;;;;;29.48;44.90;97871.06;5071607;28;20542;-77
2023/06/19 07:09:21;;;;;;;2.88;2.50;;;;;;;29.19;46.80;97882.75;5074315;28;20239;-77
2023/06/19 07:11:47;;;;;;;2.30;2.13;;;;;;;28.88;45.68;97874.75;5074579;28;20216;-76
2023/06/19 07:14:14;;;;;;;2.60;2.40;;;;;;;28.40;46.84;97892.84;5074827;28;20207;-76
2023/06/19 07:16:40;;;;;;;2.47;2.28;;;;;;;28.03;47.71;97891.88;5074663;28;20681;-76
2023/06/19 07:19:08;;;;;;;2.60;2.40;;;;;;;27.73;48.44;97898.97;5074294;28;20275;-77
2023/06/19 07:21:35;;;;;;;2.40;2.20;;;;;;;27.36;48.42;97898.16;5074380;28;20207;-78
2023/06/19 07:24:02;;;;;;;2.35;2.15;;;;;;;27.01;49.43;97905.78;5074313;28;20262;-78
2023/06/19 07:26:28;;;;;;;2.90;2.60;;;;;;;26.76;49.91;97914.84;5074168;28;20237;-78
2023/06/19 07:28:55;;;;;;;2.60;2.40;;;;;;;26.82;50.59;97917.53;5074199;28;20214;-78
2023/06/19 07:31:21;;;;;;;2.88;2.40;;;;;;;26.82;51.01;97919.44;5074196;28;20234;-78
2023/06/19 07:33:48;;;;;;;2.40;2.20;;;;;;;26.78;51.07;97926.31;5074258;28;20215;-78
2023/06/19 07:36:15;;;;;;;2.55;2.35;;;;;;;26.65;51.56;97927.16;5073903;28;20239;-78
2023/06/19 07:38:43;;;;;;;2.20;2.10;;;;;;;26.70;51.91;97938.22;5074043;28;20211;-77
2023/06/19 07:41:10;;;;;;;2.55;2.35;;;;;;;26.80;51.84;97935.91;5074037;28;20207;-78
2023/06/19 07:43:37;;;;;;;2.38;2.20;;;;;;;26.95;51.18;97931.06;5074142;28;20235;-77
2023/06/19 07:46:04;;;;;;;3.22;2.38;;;;;;;26.94;50.84;97915.81;5073793;28;20231;-78
2023/06/19 07:48:31;;;;;;;2.63;2.42;;;;;;;27.06;50.41;97929.59;5074010;28;20207;-78
2023/06/19 07:50:58;;;;;;;2.90;2.70;;;;;;;26.98;50.70;97927.94;5073584;28;20215;-78
2023/06/19 07:53:26;;;;;;;2.78;2.42;;;;;;;26.90;49.67;97921.91;5073710;28;20708;-78
2023/06/19 07:55:53;;;;;;;2.55;2.35;;;;;;;26.66;50.25;97928.00;5073921;28;20231;-77
2023/06/19 07:58:19;;;;;;;2.70;2.50;;;;;;;26.57;50.47;97924.69;5073935;28;20589;-78
2023/06/19 08:00:46;;;;;;;5.05;2.30;;;;;;;26.37;51.22;97933.84;5073646;28;20301;-76
2023/06/19 08:03:12;;;;;;;3.58;2.72;;;;;;;26.33;52.07;97943.47;5073600;28;20692;-76
2023/06/19 08:05:39;;;;;;;2.50;2.30;;;;;;;26.37;51.61;97942.81;5073600;28;20239;-76
2023/06/19 08:08:05;;;;;;;2.53;2.33;;;;;;;26.37;51.86;97945.53;5073339;28;20211;-76
2023/06/19 08:10:33;;;;;;;2.60;2.40;;;;;;;26.41;52.01;97952.22;5073531;28;20208;-76
2023/06/19 08:12:59;;;;;;;2.63;2.42;;;;;;;26.46;52.53;97948.88;5073638;28;20589;-76
2023/06/19 08:15:26;;;;;;;2.60;2.40;;;;;;;26.39;51.62;97939.91;5073702;28;20227;-76
2023/06/19 08:17:53;;;;;;;2.60;2.40;;;;;;;26.37;51.68;97942.81;5073367;28;20701;-76
2023/06/19 08:20:20;;;;;;;2.40;2.20;;;;;;;26.49;51.29;97941.16;5073074;28;20214;-76
2023/06/19 08:22:47;;;;;;;2.80;2.17;;;;;;;26.77;51.31;97936.31;5073177;28;20237;-76
2023/06/19 08:25:14;;;;;;;3.72;2.30;;;;;;;26.99;50.57;97932.31;5073130;28;20239;-76
2023/06/19 08:27:41;;;;;;;2.40;2.20;;;;;;;27.05;50.75;97936.88;5073289;28;20208;-76
2023/06/19 08:30:08;;;;;;;2.50;2.30;;;;;;;27.12;51.21;97932.25;5073106;28;20212;-76
2023/06/19 08:32:35;;;;;;;2.80;2.10;;;;;;;27.25;50.80;97926.81;5073067;28;20203;-76
2023/06/19 08:35:02;;;;;;;2.55;2.35;;;;;;;27.41;50.50;97934.47;5072996;28;20579;-76
2023/06/19 08:37:29;;;;;;;2.65;2.45;;;;;;;27.45;49.33;97917.50;5072849;28;20689;-76
2023/06/19 08:39:56;;;;;;;6.28;3.47;;;;;;;27.46;49.46;97918.38;5072846;28;20207;-76
2023/06/19 08:42:23;;;;;;;2.67;2.47;;;;;;;27.49;48.47;97904.34;5073067;28;20460;-77
2023/06/19 08:44:50;;;;;;;2.63;2.42;;;;;;;27.58;48.05;97898.44;5072955;28;20223;-76
2023/06/19 08:47:17;;;;;;;2.80;2.60;;;;;;;27.48;47.24;97891.81;5087342;22;20239;-86
2023/06/19 08:49:44;;;;;;;2.63;2.42;;;;;;;27.45;47.81;97898.50;5072009;28;20216;-89
2023/06/19 08:52:11;;;;;;;2.47;2.28;;;;;;;27.40;47.89;97901.03;5072520;28;20212;-89
2023/06/19 08:54:43;;;;;;;3.00;2.70;;;;;;;27.42;48.03;97898.97;5072803;28;20735;-89
2023/06/19 08:57:10;;;;;;;3.25;2.90;;;;;;;27.49;48.20;97899.75;5072831;28;20585;-89
2023/06/19 08:59:36;;;;;;;2.75;2.53;;;;;;;27.57;48.57;97913.06;5072399;28;20227;-89
2023/06/19 09:02:05;;;;;;;2.70;2.50;;;;;;;27.64;48.66;97913.03;5072348;28;20207;-88
2023/06/19 09:04:32;;;;;;;2.75;2.55;;;;;;;27.75;48.80;97913.16;5072636;28;20207;-89
2023/06/19 09:07:00;;;;;;;2.83;2.50;;;;;;;27.87;48.07;97913.31;5072520;28;20231;-89
2023/06/19 09:09:28;;;;;;;2.95;2.65;;;;;;;27.78;49.18;97920.06;5073425;28;20298;-88
2023/06/19 09:12:02;;;;;;;3.38;2.60;;;;;;;27.78;47.83;97909.22;5079777;28;20207;-88
2023/06/19 09:14:36;;;;;;;2.92;2.72;;;;;;;27.69;47.42;97899.63;5072500;28;20431;-87
2023/06/19 09:17:05;;;;;;;2.65;2.45;;;;;;;27.74;47.24;97905.22;5072439;28;20317;-88
2023/06/19 09:19:34;;;;;;;3.40;3.10;;;;;;;27.73;47.87;97906.28;5072136;28;20211;-87
2023/06/19 09:22:01;;;;;;;2.85;2.65;;;;;;;27.72;47.62;97896.47;5072319;28;20246;-87
2023/06/19 09:24:35;;;;;;;3.00;2.80;;;;;;;27.81;47.86;97908.78;5072286;28;20204;-88
2023/06/19 09:27:07;;;;;;;3.20;2.90;;;;;;;27.85;48.27;97918.97;5072059;28;20231;-86
2023/06/19 09:29:38;;;;;;;3.08;2.88;;;;;;;28.06;48.51;97912.34;5071144;28;20214;-87
2023/06/19 09:32:16;;;;;;;3.00;2.70;;;;;;;28.35;46.18;97888.03;5072239;28;20498;-88
2023/06/19 09:34:43;;;;;;;3.17;2.88;;;;;;;28.36;46.80;97892.44;5072133;28;20587;-87
2023/06/19 09:37:10;;;;;;;3.03;2.83;;;;;;;28.28;46.21;97883.72;5071815;28;20235;-87
2023/06/19 09:39:38;;;;;;;2.92;2.72;;;;;;;28.31;45.82;97883.28;5071521;28;20203;-87
2023/06/19 09:42:08;;;;;;;3.05;2.72;;;;;;;28.25;46.52;97889.63;5071934;28;20597;-88
2023/06/19 09:44:41;;;;;;;3.10;2.90;;;;;;;28.22;45.99;97884.59;5071790;28;20260;-89
2023/06/19 09:47:18;;;;;;;3.30;3.00;;;;;;;28.32;46.45;97888.47;5071520;28;20235;-84
2023/06/19 09:49:50;;;;;;;3.33;3.00;;;;;;;28.48;46.16;97873.50;5071521;28;20214;-84
2023/06/19 09:52:19;;;;;;;3.17;2.88;;;;;;;28.60;45.57;97882.59;5071636;28;20269;-85
2023/06/19 09:54:46;;;;;;;3.33;3.05;;;;;;;28.52;45.56;97869.28;5071595;28;20208;-85
2023/06/19 09:57:13;;;;;;;3.40;3.15;;;;;;;28.70;45.11;97874.75;5071738;28;20233;-85
2023/06/19 09:59:41;;;;;;;3.63;3.33;;;;;;;28.90;45.32;97872.63;5071539;28;20225;-85
2023/06/19 10:02:09;;;;;;;3.75;3.03;;;;;;;28.82;45.84;97881.94;5071759;28;20207;-84
2023/06/19 10:04:45;;;;;;;4.22;3.33;;;;;;;28.85;45.45;97881.47;5071422;28;20684;-85
2023/06/19 10:07:19;;;;;;;3.63;3.33;;;;;;;28.68;46.39;97885.03;5071603;28;20291;-81
2023/06/19 10:10:05;;;;;;;3.70;3.40;;;;;;;28.67;46.22;97888.81;5071274;28;20591;-82
2023/06/19 10:12:36;;;;;;;4.25;2.90;;;;;;;28.70;46.34;97894.63;5071384;28;20214;-81
2023/06/19 10:15:14;;;;;;;2.90;2.70;;;;;;;28.69;46.63;97892.97;5071430;28;20199;-83
2023/06/19 10:17:46;;;;;;;3.53;3.22;;;;;;;28.83;46.74;97893.63;5074359;28;20536;-87
2023/06/19 10:20:31;;;;;;;4.15;3.78;;;;;;;28.81;46.40;97890.31;5082015;28;20203;-85
2023/06/19 10:23:01;;;;;;;3.78;3.47;;;;;;;28.72;45.89;97888.94;5082857;28;20275;-86
2023/06/19 10:25:32;;;;;;;3.88;3.42;;;;;;;28.71;46.07;97888.13;5080552;28;20716;-88
2023/06/19 10:27:59;;;;;;;3.60;3.30;;;;;;;28.74;45.83;97875.97;5072560;28;20242;-90
2023/06/19 10:30:26;;;;;;;3.92;3.63;;;;;;;28.71;46.36;97873.69;5077006;28;20689;-91
2023/06/19 10:32:53;;;;;;;3.55;3.25;;;;;;;28.71;46.76;97887.28;5075186;28;20263;-91
2023/06/19 10:35:21;;;;;;;4.85;3.45;;;;;;;28.78;47.04;97898.91;5077240;28;20272;-90
2023/06/19 10:37:50;;;;;;;3.53;3.03;;;;;;;28.60;46.19;97877.16;5075897;28;20211;-93
2023/06/19 10:40:16;;;;;;;3.58;3.28;;;;;;;28.76;45.67;97882.00;5076072;28;20212;-90
2023/06/19 10:42:43;;;;;;;3.45;3.15;;;;;;;28.68;46.56;97879.59;5077523;28;20206;-88
2023/06/19 10:45:11;;;;;;;3.55;3.22;;;;;;;28.63;46.92;97880.28;5078169;28;20239;-91
2023/06/19 10:47:39;;;;;;;4.68;3.25;;;;;;;28.82;46.24;97881.09;5076666;28;20245;-91
2023/06/19 10:50:10;;;;;;;2.95;2.72;;;;;;;28.53;46.47;97862.78;5076502;28;20219;-91
2023/06/19 10:52:36;;;;;;;3.22;2.97;;;;;;;28.56;46.86;97870.50;5075816;28;20214;-91
2023/06/19 10:55:05;;;;;;;3.65;3.17;;;;;;;28.50;47.57;97885.00;5075975;28;20204;-90
2023/06/19 10:57:32;;;;;;;3.50;3.20;;;;;;;28.68;47.71;97879.59;5075889;28;20603;-89
2023/06/19 10:59:59;;;;;;;3.72;3.22;;;;;;;28.75;47.01;97873.03;5075266;28;20207;-89
2023/06/19 11:02:26;;;;;;;3.97;3.60;;;;;;;28.77;46.67;97875.50;5075263;28;20210;-88
2023/06/19 11:04:54;;;;;;;3.33;3.03;;;;;;;28.68;47.12;97874.16;5075179;28;20214;-87
2023/06/19 11:07:21;;;;;;;3.47;3.17;;;;;;;28.72;46.97;97875.34;5074938;28;20265;-87
2023/06/19 11:09:47;;;;;;;3.63;3.33;;;;;;;28.72;46.62;97870.75;5074908;28;20215;-88
2023/06/19 11:12:20;;;;;;;3.35;3.05;;;;;;;28.63;47.33;97876.72;5074956;28;20203;-88
2023/06/19 11:14:46;;;;;;;4.15;3.35;;;;;;;28.62;47.26;97877.78;5074864;28;20204;-87
2023/06/19 11:17:13;;;;;;;3.78;3.47;;;;;;;28.67;47.75;97880.66;5075009;28;20733;-88
2023/06/19 11:19:41;;;;;;;3.38;3.08;;;;;;;28.70;47.43;97888.34;5074360;28;20222;-89
2023/06/19 11:22:08;;;;;;;3.75;3.35;;;;;;;28.71;48.01;97885.41;5074892;28;20212;-87
2023/06/19 11:24:34;;;;;;;3.90;3.60;;;;;;;28.54;47.23;97872.59;5074980;28;20207;-87
2023/06/19 11:27:01;;;;;;;3.75;3.40;;;;;;;28.58;47.45;97868.38;5074726;28;20240;-87
2023/06/19 11:29:31;;;;;;;3.95;3.65;;;;;;;28.60;48.04;97871.69;5074169;28;20215;-87
2023/06/19 11:32:06;;;;;;;3.67;3.38;;;;;;;28.72;47.64;97864.47;5074576;28;20210;-87
2023/06/19 11:34:36;;;;;;;3.45;3.15;;;;;;;28.61;46.81;97852.44;5075035;28;20211;-87
2023/06/19 11:37:05;;;;;;;3.95;3.65;;;;;;;28.66;47.23;97865.38;5074447;28;20793;-87
2023/06/19 11:39:32;;;;;;;3.72;3.42;;;;;;;28.81;47.52;97863.13;5074157;28;20257;-87